Time;durP1;ratioP1;P1;durP2;ratioP2;P2;SDS_P1;SDS_P2;PMS_P1;PMS_P2;Temp;Humidity;BMP_temperature;BMP_pressure;BME280_temperature;BME280_humidity;BME280_pressure;Samples;Min_cycle;Max_cycle;Signal;HPM_P1;HPM_P2
2022/07/09 00:49:07;;;;;;;;;;;;;;;16.87;56.40527;102902.8;;;;-81
2022/07/09 00:56:43;;;;;;;;;;;;;;;16.78;57.10547;102909.5;;;;-80
2022/07/09 01:19:17;;;;;;;;;;;;;;;16.34;57.0918;102893.6;;;;-82
2022/07/09 01:49:04;;;;;;;;;;;;;;;16.82;55.85449;102886.3;;;;-80
2022/07/09 02:15:19;;;;;;;;;;;;;;;16.62;56.5752;102870.5;;;;-80
2022/07/09 03:54:02;;;;;;;;;;;;;;;16.66;55.90332;102819.1;;;;-79
2022/07/09 04:34:26;;;;;;;;;;;;;;;16.8;56.05566;102790.3;;;;-82
2022/07/09 05:21:08;;;;;;;;;;;;;;;17.43;55.44531;102785.2;;;;-82
2022/07/09 06:29:25;;;;;;;;;;;;;;;20.62;54.97754;102806.9;;;;-82
2022/07/09 09:34:07;;;;;;;;;;;;;;;24.98;47.22363;102809.2;;;;-82
2022/07/09 10:21:22;;;;;;;;;;;;;;;26.35;44.03027;102839.2;;;;-81
2022/07/09 10:43:55;;;;;;;;;;;;;;;26;44.01953;102852.4;;;;-81
2022/07/09 10:57:53;;;;;;;;;;;;;;;26.33;44.23633;102842.9;;;;-81
2022/07/09 11:07:39;;;;;;;;;;;;;;;;;;;;;
2022/07/09 11:13:06;;;;;;;;;;;;;;;27.8;41.8916;102855.1;;;;-77
2022/07/09 11:16:36;;;;;;;;;;;;;;;27.64;41.69141;102855.5;;;;-78
2022/07/09 11:21:36;;;;;;;;;;;;;;;27.59;41.4541;102852.5;;;;-78
2022/07/09 11:26:36;;;;;;;;;;;;;;;27.73;41.64063;102857.4;;;;-79
2022/07/09 11:28:53;;;;;;;4.9;1.1;;;;;;;;;;;;;-73
2022/07/09 11:31:34;;;;;;;;;;;;;;;28;41.49121;102850.4;;;;-74
2022/07/09 11:36:43;;;;;;;;;;;;;;;28.3;41.05273;102855.1;;;;-80
2022/07/09 11:41:43;;;;;;;;;;;;;;;28.34;40.30957;102849.4;;;;-79
2022/07/09 11:46:40;;;;;;;;;;;;;;;28.24;40.55859;102846.6;;;;-79
2022/07/09 11:51:35;;;;;;;;;;;;;;;28.34;40.625;102851.7;;;;-79
2022/07/09 11:56:33;;;;;;;;;;;;;;;28.61;40.35742;102845.1;;;;-79
2022/07/09 11:58:57;;;;;;;3.3;1;;;;;;;;;;;;;-79
2022/07/09 12:01:35;;;;;;;;;;;;;;;28.96;40.17871;102847.3;;;;-78
2022/07/09 12:06:35;;;;;;;;;;;;;;;29.23;39.53711;102851.6;;;;-78
2022/07/09 12:11:35;;;;;;;;;;;;;;;29.3;38.80664;102860.1;;;;-78
2022/07/09 12:16:35;;;;;;;;;;;;;;;29.04;39.41504;102856.9;;;;-80
2022/07/09 12:21:36;;;;;;;;;;;;;;;28.84;39.6543;102851.7;;;;-79
2022/07/09 12:26:35;;;;;;;;;;;;;;;28.73;39.75;102859.6;;;;-78
2022/07/09 12:29:00;;;;;;;4.9;1.2;;;;;;;;;;;;;-77
2022/07/09 12:31:38;;;;;;;;;;;;;;;28.6;39.58691;102866.4;;;;-77
2022/07/09 12:36:34;;;;;;;;;;;;;;;28.5;39.75195;102868.4;;;;-79
2022/07/09 12:41:34;;;;;;;;;;;;;;;28.37;39.49609;102863.4;;;;-78
2022/07/09 12:46:35;;;;;;;;;;;;;;;28.35;39.56445;102866.5;;;;-78
2022/07/09 12:51:35;;;;;;;;;;;;;;;28.38;39.31055;102867.4;;;;-79
2022/07/09 12:56:34;;;;;;;;;;;;;;;28.4;39.24219;102876.1;;;;-78
2022/07/09 12:59:04;;;;;;;4.8;1.1;;;;;;;;;;;;;-75
2022/07/09 13:01:34;;;;;;;;;;;;;;;28.39;39.26563;102874.9;;;;-73
2022/07/09 13:06:37;;;;;;;;;;;;;;;28.48;38.99316;102875.9;;;;-73
2022/07/09 13:11:35;;;;;;;;;;;;;;;28.55;38.62598;102872.6;;;;-72
2022/07/09 13:16:34;;;;;;;;;;;;;;;28.6;38.1748;102875.5;;;;-74
2022/07/09 13:21:35;;;;;;;;;;;;;;;28.61;38.43164;102880.9;;;;-74
2022/07/09 13:26:34;;;;;;;;;;;;;;;28.64;38.16602;102884.9;;;;-75
2022/07/09 13:29:08;;;;;;;5.8;1.1;;;;;;;;;;;;;-79
2022/07/09 13:31:34;;;;;;;;;;;;;;;28.76;37.70996;102879.4;;;;-80
2022/07/09 13:36:34;;;;;;;;;;;;;;;28.83;37.36523;102882.5;;;;-79
2022/07/09 13:41:34;;;;;;;;;;;;;;;28.97;37.36523;102881.5;;;;-78
2022/07/09 13:46:34;;;;;;;;;;;;;;;29.1;36.93164;102887.9;;;;-78
2022/07/09 13:51:34;;;;;;;;;;;;;;;29.33;36.54102;102882.3;;;;-77
2022/07/09 13:56:34;;;;;;;;;;;;;;;29.44;36.22266;102889.7;;;;-79
2022/07/09 13:59:13;;;;;;;3.3;1.1;;;;;;;;;;;;;-78
2022/07/09 14:01:37;;;;;;;;;;;;;;;29.41;36.11523;102883.5;;;;-78
2022/07/09 14:06:34;;;;;;;;;;;;;;;29.46;36.21191;102889.5;;;;-78
2022/07/09 14:11:34;;;;;;;;;;;;;;;29.62;35.9209;102899.8;;;;-77
2022/07/09 14:16:34;;;;;;;;;;;;;;;29.63;35.67676;102900.9;;;;-78
2022/07/09 14:21:34;;;;;;;;;;;;;;;29.59;35.41504;102903.4;;;;-79
2022/07/09 14:26:34;;;;;;;;;;;;;;;29.45;35.67285;102898.2;;;;-75
2022/07/09 14:29:18;;;;;;;3.8;1;;;;;;;;;;;;;-78
2022/07/09 14:31:34;;;;;;;;;;;;;;;29.26;35.64648;102904.4;;;;-78
2022/07/09 14:36:37;;;;;;;;;;;;;;;29.01;35.68652;102909.9;;;;-77
2022/07/09 14:41:35;;;;;;;;;;;;;;;28.79;36.01855;102909.5;;;;-77
2022/07/09 14:46:35;;;;;;;;;;;;;;;28.53;36.37109;102916;;;;-78
2022/07/09 14:51:35;;;;;;;;;;;;;;;28.22;37.11621;102912.5;;;;-78
2022/07/09 14:56:34;;;;;;;;;;;;;;;27.95;36.80273;102914.2;;;;-77
2022/07/09 14:59:22;;;;;;;4.5;1;;;;;;;;;;;;;-77
2022/07/09 15:01:34;;;;;;;;;;;;;;;27.68;36.81543;102914.8;;;;-76
2022/07/09 15:06:35;;;;;;;;;;;;;;;27.46;36.98438;102911.3;;;;-78
2022/07/09 15:11:37;;;;;;;;;;;;;;;27.33;37.13672;102914;;;;-77
2022/07/09 15:16:34;;;;;;;;;;;;;;;27.17;37.36816;102909.8;;;;-75
2022/07/09 15:21:37;;;;;;;;;;;;;;;27.03;37.35645;102911.2;;;;-74
2022/07/09 15:26:35;;;;;;;;;;;;;;;26.84;37.35156;102920.3;;;;-74
2022/07/09 15:29:28;;;;;;;4.3;1.1;;;;;;;;;;;;;-75
2022/07/09 15:31:40;;;;;;;;;;;;;;;26.66;37.40723;102914.5;;;;-78
2022/07/09 15:36:36;;;;;;;;;;;;;;;26.59;37.5752;102912.5;;;;-79
2022/07/09 15:41:40;;;;;;;;;;;;;;;26.56;37.39941;102906.5;;;;-76
2022/07/09 15:46:34;;;;;;;;;;;;;;;26.6;37.03027;102910.2;;;;-78
2022/07/09 15:51:35;;;;;;;;;;;;;;;26.52;36.53613;102907.1;;;;-79
2022/07/09 15:56:34;;;;;;;;;;;;;;;26.43;36.37695;102907.1;;;;-77
2022/07/09 15:59:31;;;;;;;4.2;1.1;;;;;;;;;;;;;-78
2022/07/09 16:01:35;;;;;;;;;;;;;;;26.4;36.38672;102911.5;;;;-80
2022/07/09 16:06:34;;;;;;;;;;;;;;;26.3;36.16895;102909;;;;-78
2022/07/09 16:16:34;;;;;;;;;;;;;;;26.13;36.21289;102909.1;;;;-77
2022/07/09 16:21:35;;;;;;;;;;;;;;;25.98;36.27148;102912.2;;;;-78
2022/07/09 16:26:34;;;;;;;;;;;;;;;25.87;36.45996;102904.8;;;;-77
2022/07/09 16:29:35;;;;;;;3.3;0.9;;;;;;;;;;;;;-76
2022/07/09 16:31:34;;;;;;;;;;;;;;;25.79;36.63965;102905.2;;;;-77
2022/07/09 16:36:34;;;;;;;;;;;;;;;25.69;36.63086;102907.7;;;;-77
2022/07/09 16:41:36;;;;;;;;;;;;;;;25.62;36.8916;102913.6;;;;-77
2022/07/09 16:46:34;;;;;;;;;;;;;;;25.58;37.13184;102913.5;;;;-76
2022/07/09 16:51:34;;;;;;;;;;;;;;;25.53;37.17383;102905.8;;;;-78
2022/07/09 16:56:36;;;;;;;;;;;;;;;25.46;37.27344;102912.2;;;;-77
2022/07/09 16:59:39;;;;;;;2.4;0.8;;;;;;;;;;;;;-78
2022/07/09 17:01:35;;;;;;;;;;;;;;;25.45;37.36426;102911.6;;;;-79
2022/07/09 17:06:34;;;;;;;;;;;;;;;25.39;37.24414;102910.5;;;;-77
2022/07/09 17:11:34;;;;;;;;;;;;;;;25.32;37.33008;102910.5;;;;-79
2022/07/09 17:16:34;;;;;;;;;;;;;;;25.2;37.33203;102900.9;;;;-74
2022/07/09 17:21:35;;;;;;;;;;;;;;;25.04;37.35352;102898.4;;;;-75
2022/07/09 17:26:34;;;;;;;;;;;;;;;24.86;37.46582;102893.4;;;;-74
2022/07/09 17:29:42;;;;;;;4.2;0.9;;;;;;;;;;;;;-73
2022/07/09 17:31:35;;;;;;;;;;;;;;;24.71;37.70801;102885.6;;;;-74
2022/07/09 17:36:34;;;;;;;;;;;;;;;24.6;37.83789;102873.6;;;;-73
2022/07/09 17:41:34;;;;;;;;;;;;;;;24.51;37.95703;102879.1;;;;-74
2022/07/09 17:46:34;;;;;;;;;;;;;;;24.34;37.9668;102880.7;;;;-74
2022/07/09 17:51:34;;;;;;;;;;;;;;;24.13;38.17969;102888.2;;;;-75
2022/07/09 17:56:34;;;;;;;;;;;;;;;23.9;38.26367;102890.5;;;;-78
2022/07/09 17:59:46;;;;;;;2.7;0.9;;;;;;;;;;;;;-76
2022/07/09 18:01:34;;;;;;;;;;;;;;;23.66;38.54297;102886.5;;;;-77
2022/07/09 18:06:34;;;;;;;;;;;;;;;23.52;38.91211;102885.7;;;;-78
2022/07/09 18:11:34;;;;;;;;;;;;;;;23.35;39.16309;102879.3;;;;-78
2022/07/09 18:16:34;;;;;;;;;;;;;;;23.17;39.29688;102886.4;;;;-76
2022/07/09 18:21:35;;;;;;;;;;;;;;;22.99;39.62695;102887.3;;;;-77
2022/07/09 18:26:36;;;;;;;;;;;;;;;22.83;39.6709;102893.1;;;;-76
2022/07/09 18:29:49;;;;;;;2.7;0.7;;;;;;;;;;;;;-78
2022/07/09 18:31:34;;;;;;;;;;;;;;;22.68;39.7832;102890.5;;;;-79
2022/07/09 18:36:34;;;;;;;;;;;;;;;22.54;39.81738;102896.8;;;;-77
2022/07/09 18:41:35;;;;;;;;;;;;;;;22.38;40.13574;102901.1;;;;-77
2022/07/09 18:46:34;;;;;;;;;;;;;;;22.24;40.25;102910.7;;;;-78
2022/07/09 18:51:34;;;;;;;;;;;;;;;22.1;40.4209;102926.7;;;;-76
2022/07/09 18:56:37;;;;;;;;;;;;;;;21.94;40.54492;102925.9;;;;-78
2022/07/09 18:59:52;;;;;;;2.7;0.7;;;;;;;;;;;;;-75
2022/07/09 19:01:35;;;;;;;;;;;;;;;21.74;40.65332;102921.8;;;;-78
2022/07/09 19:06:34;;;;;;;;;;;;;;;21.54;40.80664;102933.8;;;;-76
2022/07/09 19:11:35;;;;;;;;;;;;;;;21.31;40.84375;102928.6;;;;-78
2022/07/09 19:16:37;;;;;;;;;;;;;;;21.09;40.99512;102932.2;;;;-77
2022/07/09 19:21:35;;;;;;;;;;;;;;;20.87;41.22754;102925.6;;;;-77
2022/07/09 19:26:34;;;;;;;;;;;;;;;20.68;41.36914;102921.6;;;;-78
2022/07/09 19:29:56;;;;;;;3;0.6;;;;;;;;;;;;;-76
2022/07/09 19:36:35;;;;;;;;;;;;;;;20.31;42.01074;102923.9;;;;-76
2022/07/09 19:41:39;;;;;;;;;;;;;;;20.15;42.32715;102932;;;;-77
2022/07/09 19:46:35;;;;;;;;;;;;;;;19.99;42.72461;102944.7;;;;-78
2022/07/09 19:51:34;;;;;;;;;;;;;;;19.84;43.10938;102941.7;;;;-77
2022/07/09 19:56:35;;;;;;;;;;;;;;;19.69;43.3916;102943.2;;;;-76
2022/07/09 19:59:59;;;;;;;1.9;0.6;;;;;;;;;;;;;-77
2022/07/09 20:01:34;;;;;;;;;;;;;;;19.54;43.71875;102942.5;;;;-76
2022/07/09 20:06:36;;;;;;;;;;;;;;;19.41;44.11719;102948.5;;;;-77
2022/07/09 20:11:35;;;;;;;;;;;;;;;19.28;44.29785;102946.3;;;;-77
2022/07/09 20:16:35;;;;;;;;;;;;;;;19.17;44.78906;102943.6;;;;-76
2022/07/09 20:21:34;;;;;;;;;;;;;;;19.04;45.00391;102946.2;;;;-77
2022/07/09 20:26:34;;;;;;;;;;;;;;;18.91;45.28711;102951.6;;;;-77
2022/07/09 20:30:00;;;;;;;3.2;0.8;;;;;;;;;;;;;-78
2022/07/09 20:31:34;;;;;;;;;;;;;;;18.77;45.30859;102953;;;;-78
2022/07/09 20:36:34;;;;;;;;;;;;;;;18.62;45.64551;102953.8;;;;-78
2022/07/09 20:41:34;;;;;;;;;;;;;;;18.48;45.74414;102951.2;;;;-78
2022/07/09 20:46:35;;;;;;;;;;;;;;;18.36;46.03906;102947.3;;;;-77
2022/07/09 20:51:38;;;;;;;;;;;;;;;18.25;46.22168;102951.5;;;;-78
2022/07/09 22:25:06;;;;;;;;;;;;;;;17.68;47.60449;102919.2;;;;-80
2022/07/09 23:24:25;;;;;;;;;;;;;;;17.07;48.74121;102886.1;;;;-81
